PWSweather.com
Personal Weather Stations
Station Observations
133525
French Quarters West Seneca , West Seneca, NY 14224

French Quarters West Seneca West Seneca, NY 14224

Lat: 42.850058, Lon: -78.799754

Elevation: 603

Station Type: Davis Vantage Vue pro2

http://westsenecaweather.com/

Latest ConditionsUpdated 6:30:01 PM EDT Monday, Oct 15, 2018
Currently Today's Max Today's Min Today's Average
Temperature 51.4°F10.8°C 58.7°F14.8°C 43.0°F6.1°C 51.6°F10.9°C
Dew Point 44.4°F6.9°C 57.0°F13.9°C 40.0°F4.4°C 48.4°F9.1°C
Winds 9.2 mph ENE14.8 kmh ENE 12.7 mph -20.4 kmh - - 3.4 mph 5.5 kmh
Wind Gusts 18.4 mph29.6 kmh 25.3 mph40.7 kmh - -
Humidity 77% 94% 76% 89%
Pressure 29.90 in1012.5 mb 30.05 in1017.6 mb 29.79 in1008.8 mb -
Precipitation - 0.06 in1.5 mm - -
Hour Temp Dew Point Humidity Winds Wind Gusts Pressure Precip Precip Rate Daily Precip Total
06:30 PM 51.4°F10.8°C 44.4°F6.9°C 77% 9.2 mph ENE14.8 kmh ENE 18.4 mph29.6 kmh 29.90 in1012.5 mb - 0.00 in0.0 mm 0.06 in1.5 mm
06:25 PM 51.6°F10.9°C 45.0°F7.2°C 78% 8.1 mph E13.0 kmh E 13.8 mph22.2 kmh 29.89 in1012.2 mb - 0.00 in0.0 mm 0.06 in1.5 mm
06:20 PM 51.8°F11.0°C 45.1°F7.3°C 78% 9.2 mph E14.8 kmh E 11.5 mph18.5 kmh 29.89 in1012.2 mb - 0.00 in0.0 mm 0.06 in1.5 mm
06:15 PM 51.9°F11.1°C 45.3°F7.4°C 78% 4.6 mph ENE7.4 kmh ENE 12.7 mph20.4 kmh 29.89 in1012.2 mb - 0.00 in0.0 mm 0.06 in1.5 mm
06:10 PM 52.0°F11.1°C 45.1°F7.3°C 77% 9.2 mph ENE14.8 kmh ENE 12.7 mph20.4 kmh 29.88 in1011.9 mb - 0.00 in0.0 mm 0.06 in1.5 mm
06:00 PM 52.7°F11.5°C 45.7°F7.6°C 77% 8.1 mph NE13.0 kmh NE 11.5 mph18.5 kmh 29.88 in1011.9 mb - 0.00 in0.0 mm 0.06 in1.5 mm
05:55 PM 53.1°F11.7°C 46.1°F7.8°C 77% 4.6 mph ENE7.4 kmh ENE 9.2 mph14.8 kmh 29.88 in1011.9 mb - 0.00 in0.0 mm 0.06 in1.5 mm
05:50 PM 53.3°F11.8°C 46.6°F8.1°C 78% 5.8 mph E9.3 kmh E 9.2 mph14.8 kmh 29.87 in1011.5 mb - 0.00 in0.0 mm 0.06 in1.5 mm
05:45 PM 53.3°F11.8°C 46.3°F7.9°C 77% 9.2 mph NNE14.8 kmh NNE 17.3 mph27.8 kmh 29.87 in1011.5 mb - 0.00 in0.0 mm 0.06 in1.5 mm
05:40 PM 53.3°F11.8°C 46.6°F8.1°C 78% 5.8 mph NE9.3 kmh NE 11.5 mph18.5 kmh 29.87 in1011.5 mb - 0.00 in0.0 mm 0.06 in1.5 mm
05:35 PM 53.4°F11.9°C 46.7°F8.2°C 78% 4.6 mph NE7.4 kmh NE 5.8 mph9.3 kmh 29.87 in1011.5 mb - 0.00 in0.0 mm 0.06 in1.5 mm
05:30 PM 53.3°F11.8°C 46.6°F8.1°C 78% 10.4 mph NE16.7 kmh NE 12.7 mph20.4 kmh 29.86 in1011.2 mb - 0.00 in0.0 mm 0.06 in1.5 mm
05:25 PM 53.3°F11.8°C 46.6°F8.1°C 78% 5.8 mph ENE9.3 kmh ENE 15.0 mph24.1 kmh 29.86 in1011.2 mb - 0.00 in0.0 mm 0.06 in1.5 mm
05:20 PM 53.3°F11.8°C 46.3°F7.9°C 77% 6.9 mph NE11.1 kmh NE 9.2 mph14.8 kmh 29.86 in1011.2 mb - 0.00 in0.0 mm 0.06 in1.5 mm
05:15 PM 53.3°F11.8°C 46.3°F7.9°C 77% 6.9 mph ENE11.1 kmh ENE 10.4 mph16.7 kmh 29.86 in1011.2 mb - 0.00 in0.0 mm 0.06 in1.5 mm
05:10 PM 53.3°F11.8°C 46.3°F7.9°C 77% 5.8 mph E9.3 kmh E 11.5 mph18.5 kmh 29.86 in1011.2 mb - 0.00 in0.0 mm 0.06 in1.5 mm
05:00 PM 53.4°F11.9°C 46.0°F7.8°C 76% 10.4 mph NE16.7 kmh NE 18.4 mph29.6 kmh 29.86 in1011.2 mb - 0.00 in0.0 mm 0.06 in1.5 mm
04:55 PM 53.5°F11.9°C 46.1°F7.8°C 76% 6.9 mph NE11.1 kmh NE 8.1 mph13.0 kmh 29.86 in1011.2 mb - 0.00 in0.0 mm 0.06 in1.5 mm
04:50 PM 53.8°F12.1°C 46.4°F8.0°C 76% 9.2 mph NE14.8 kmh NE 11.5 mph18.5 kmh 29.85 in1010.8 mb - 0.00 in0.0 mm 0.06 in1.5 mm
04:45 PM 54.1°F12.3°C 47.7°F8.7°C 79% 9.2 mph NE14.8 kmh NE 15.0 mph24.1 kmh 29.85 in1010.8 mb - 0.00 in0.0 mm 0.06 in1.5 mm
04:40 PM 54.2°F12.3°C 48.2°F9.0°C 80% 5.8 mph NE9.3 kmh NE 19.6 mph31.5 kmh 29.85 in1010.8 mb - 0.00 in0.0 mm 0.06 in1.5 mm
04:35 PM 54.2°F12.3°C 48.2°F9.0°C 80% 4.6 mph NE7.4 kmh NE 11.5 mph18.5 kmh 29.85 in1010.8 mb - 0.00 in0.0 mm 0.06 in1.5 mm
04:30 PM 54.2°F12.3°C 47.8°F8.8°C 79% 8.1 mph ENE13.0 kmh ENE 12.7 mph20.4 kmh 29.84 in1010.5 mb - 0.00 in0.0 mm 0.06 in1.5 mm
04:25 PM 54.4°F12.4°C 48.7°F9.3°C 81% 8.1 mph ENE13.0 kmh ENE 11.5 mph18.5 kmh 29.84 in1010.5 mb - 0.00 in0.0 mm 0.06 in1.5 mm
04:20 PM 54.6°F12.6°C 49.2°F9.6°C 82% 10.4 mph NE16.7 kmh NE 12.7 mph20.4 kmh 29.84 in1010.5 mb - 0.00 in0.0 mm 0.06 in1.5 mm
04:15 PM 54.9°F12.7°C 49.5°F9.7°C 82% 8.1 mph NE13.0 kmh NE 11.5 mph18.5 kmh 29.84 in1010.5 mb - 0.00 in0.0 mm 0.06 in1.5 mm
04:10 PM 55.2°F12.9°C 49.8°F9.9°C 82% 8.1 mph NE13.0 kmh NE 13.8 mph22.2 kmh 29.84 in1010.5 mb - 0.00 in0.0 mm 0.06 in1.5 mm
04:00 PM 55.6°F13.1°C 50.5°F10.3°C 83% 10.4 mph ENE16.7 kmh ENE 15.0 mph24.1 kmh 29.83 in1010.2 mb - 0.00 in0.0 mm 0.06 in1.5 mm
03:55 PM 55.7°F13.2°C 50.6°F10.3°C 83% 8.1 mph NE13.0 kmh NE 21.9 mph35.2 kmh 29.83 in1010.2 mb - 0.00 in0.0 mm 0.06 in1.5 mm
03:50 PM 55.8°F13.2°C 50.4°F10.2°C 82% 9.2 mph NE14.8 kmh NE 23.0 mph37.0 kmh 29.83 in1010.2 mb - 0.00 in0.0 mm 0.06 in1.5 mm
03:45 PM 55.7°F13.2°C 50.6°F10.3°C 83% 6.9 mph NE11.1 kmh NE 17.3 mph27.8 kmh 29.83 in1010.2 mb - 0.00 in0.0 mm 0.06 in1.5 mm
03:40 PM 55.8°F13.2°C 50.7°F10.4°C 83% 9.2 mph NE14.8 kmh NE 18.4 mph29.6 kmh 29.82 in1009.8 mb - 0.00 in0.0 mm 0.06 in1.5 mm
03:35 PM 55.9°F13.3°C 50.8°F10.4°C 83% 12.7 mph NE20.4 kmh NE 15.0 mph24.1 kmh 29.82 in1009.8 mb - 0.00 in0.0 mm 0.06 in1.5 mm
03:30 PM 56.3°F13.5°C 51.5°F10.8°C 84% 8.1 mph ENE13.0 kmh ENE 17.3 mph27.8 kmh 29.82 in1009.8 mb - 0.00 in0.0 mm 0.06 in1.5 mm
03:25 PM 56.7°F13.7°C 52.2°F11.2°C 85% 5.8 mph NE9.3 kmh NE 12.7 mph20.4 kmh 29.82 in1009.8 mb - 0.00 in0.0 mm 0.06 in1.5 mm
03:20 PM 56.6°F13.7°C 51.8°F11.0°C 84% 6.9 mph NNE11.1 kmh NNE 15.0 mph24.1 kmh 29.82 in1009.8 mb - 0.00 in0.0 mm 0.06 in1.5 mm
03:15 PM 56.7°F13.7°C 51.9°F11.1°C 84% 6.9 mph NE11.1 kmh NE 10.4 mph16.7 kmh 29.82 in1009.8 mb - 0.00 in0.0 mm 0.06 in1.5 mm
03:10 PM 56.7°F13.7°C 52.2°F11.2°C 85% 10.4 mph NE16.7 kmh NE 17.3 mph27.8 kmh 29.82 in1009.8 mb - 0.00 in0.0 mm 0.06 in1.5 mm
03:00 PM 56.7°F13.7°C 52.6°F11.4°C 86% 9.2 mph ENE14.8 kmh ENE 17.3 mph27.8 kmh 29.81 in1009.5 mb - 0.00 in0.0 mm 0.06 in1.5 mm
02:55 PM 56.7°F13.7°C 52.9°F11.6°C 87% 8.1 mph NE13.0 kmh NE 11.5 mph18.5 kmh 29.81 in1009.5 mb - 0.00 in0.0 mm 0.06 in1.5 mm
02:50 PM 56.6°F13.7°C 52.8°F11.6°C 87% 10.4 mph ENE16.7 kmh ENE 21.9 mph35.2 kmh 29.81 in1009.5 mb - 0.00 in0.0 mm 0.06 in1.5 mm
02:45 PM 56.3°F13.5°C 52.8°F11.6°C 88% 5.8 mph NE9.3 kmh NE 11.5 mph18.5 kmh 29.81 in1009.5 mb - 0.01 in0.3 mm 0.06 in1.5 mm
02:40 PM 56.0°F13.3°C 52.8°F11.6°C 89% 8.1 mph NE13.0 kmh NE 15.0 mph24.1 kmh 29.80 in1009.1 mb - 0.01 in0.3 mm 0.06 in1.5 mm
02:35 PM 55.7°F13.2°C 52.8°F11.6°C 90% 5.8 mph NE9.3 kmh NE 9.2 mph14.8 kmh 29.81 in1009.5 mb - 0.01 in0.3 mm 0.06 in1.5 mm
02:30 PM 55.3°F12.9°C 52.7°F11.5°C 91% 5.8 mph NE9.3 kmh NE 17.3 mph27.8 kmh 29.81 in1009.5 mb - 0.01 in0.3 mm 0.06 in1.5 mm
02:25 PM 55.1°F12.8°C 52.5°F11.4°C 91% 5.8 mph NE9.3 kmh NE 11.5 mph18.5 kmh 29.81 in1009.5 mb - 0.01 in0.3 mm 0.06 in1.5 mm
02:20 PM 54.8°F12.7°C 52.0°F11.1°C 90% 5.8 mph NE9.3 kmh NE 12.7 mph20.4 kmh 29.81 in1009.5 mb - 0.01 in0.3 mm 0.06 in1.5 mm
02:15 PM 54.6°F12.6°C 52.0°F11.1°C 91% 5.8 mph NE9.3 kmh NE 11.5 mph18.5 kmh 29.81 in1009.5 mb - 0.02 in0.5 mm 0.06 in1.5 mm
02:10 PM 54.7°F12.6°C 52.1°F11.2°C 91% 6.9 mph N11.1 kmh N 15.0 mph24.1 kmh 29.81 in1009.5 mb - 0.03 in0.8 mm 0.06 in1.5 mm
02:00 PM 55.2°F12.9°C 53.2°F11.8°C 93% 6.9 mph ENE11.1 kmh ENE 16.1 mph25.9 kmh 29.81 in1009.5 mb - 0.04 in1.0 mm 0.06 in1.5 mm
01:55 PM 55.2°F12.9°C 53.3°F11.8°C 93% 5.8 mph NE9.3 kmh NE 12.7 mph20.4 kmh 29.81 in1009.5 mb - 0.04 in1.0 mm 0.06 in1.5 mm
01:50 PM 55.5°F13.1°C 53.8°F12.1°C 94% 8.1 mph NE13.0 kmh NE 16.1 mph25.9 kmh 29.81 in1009.5 mb - 0.04 in1.0 mm 0.06 in1.5 mm
01:45 PM 55.8°F13.2°C 54.1°F12.3°C 94% 10.4 mph NE16.7 kmh NE 16.1 mph25.9 kmh 29.81 in1009.5 mb - 0.04 in1.0 mm 0.06 in1.5 mm
01:40 PM 56.2°F13.4°C 54.2°F12.3°C 93% 6.9 mph NE11.1 kmh NE 17.3 mph27.8 kmh 29.80 in1009.1 mb - 0.03 in0.8 mm 0.05 in1.3 mm
01:35 PM 56.5°F13.6°C 54.5°F12.5°C 93% 9.2 mph ENE14.8 kmh ENE 13.8 mph22.2 kmh 29.80 in1009.1 mb - 0.04 in1.0 mm 0.05 in1.3 mm
01:30 PM 56.9°F13.8°C 54.9°F12.7°C 93% 11.5 mph NE18.5 kmh NE 25.3 mph40.7 kmh 29.80 in1009.1 mb - 0.04 in1.0 mm 0.05 in1.3 mm
01:25 PM 57.6°F14.2°C 55.9°F13.3°C 94% 5.8 mph NE9.3 kmh NE 16.1 mph25.9 kmh 29.80 in1009.1 mb - 0.05 in1.3 mm 0.05 in1.3 mm
01:20 PM 57.9°F14.4°C 56.2°F13.4°C 94% 9.2 mph NE14.8 kmh NE 12.7 mph20.4 kmh 29.79 in1008.8 mb - 0.05 in1.3 mm 0.05 in1.3 mm
01:15 PM 58.6°F14.8°C 56.9°F13.8°C 94% 8.1 mph NE13.0 kmh NE 15.0 mph24.1 kmh 29.79 in1008.8 mb - 0.05 in1.3 mm 0.05 in1.3 mm
01:10 PM 58.6°F14.8°C 56.9°F13.8°C 94% 4.6 mph NW7.4 kmh NW 8.1 mph13.0 kmh 29.79 in1008.8 mb - 0.03 in0.8 mm 0.03 in0.8 mm
01:00 PM 58.7°F14.8°C 57.0°F13.9°C 94% 3.5 mph NNW5.6 kmh NNW 9.2 mph14.8 kmh 29.79 in1008.8 mb - 0.02 in0.5 mm 0.02 in0.5 mm
12:55 PM 58.6°F14.8°C 56.9°F13.8°C 94% 4.6 mph N7.4 kmh N 18.4 mph29.6 kmh 29.79 in1008.8 mb - 0.02 in0.5 mm 0.02 in0.5 mm
12:50 PM 58.4°F14.7°C 56.7°F13.7°C 94% 5.8 mph N9.3 kmh N 11.5 mph18.5 kmh 29.80 in1009.1 mb - 0.02 in0.5 mm 0.02 in0.5 mm
12:45 PM 58.1°F14.5°C 56.4°F13.6°C 94% 6.9 mph N11.1 kmh N 13.8 mph22.2 kmh 29.80 in1009.1 mb - 0.02 in0.5 mm 0.02 in0.5 mm
12:40 PM 58.0°F14.4°C 56.0°F13.3°C 93% 5.8 mph NW9.3 kmh NW 11.5 mph18.5 kmh 29.80 in1009.1 mb - 0.02 in0.5 mm 0.02 in0.5 mm
12:35 PM 57.9°F14.4°C 55.9°F13.3°C 93% 4.6 mph N7.4 kmh N 6.9 mph11.1 kmh 29.80 in1009.1 mb - 0.01 in0.3 mm 0.01 in0.3 mm
12:30 PM 57.9°F14.4°C 55.6°F13.1°C 92% 3.5 mph NNW5.6 kmh NNW 8.1 mph13.0 kmh 29.80 in1009.1 mb - 0.01 in0.3 mm 0.01 in0.3 mm
12:25 PM 57.8°F14.3°C 55.5°F13.1°C 92% 5.8 mph NW9.3 kmh NW 10.4 mph16.7 kmh 29.80 in1009.1 mb - 0.00 in0.0 mm 0.00 in0.0 mm
12:20 PM 57.7°F14.3°C 55.4°F13.0°C 92% 4.6 mph NNW7.4 kmh NNW 12.7 mph20.4 kmh 29.80 in1009.1 mb - 0.00 in0.0 mm 0.00 in0.0 mm
12:15 PM 57.7°F14.3°C 55.7°F13.2°C 93% 4.6 mph N7.4 kmh N 11.5 mph18.5 kmh 29.80 in1009.1 mb - 0.00 in0.0 mm 0.00 in0.0 mm
12:10 PM 57.5°F14.2°C 55.5°F13.1°C 93% 6.9 mph N11.1 kmh N 11.5 mph18.5 kmh 29.80 in1009.1 mb - 0.00 in0.0 mm 0.00 in0.0 mm
12:00 PM 57.2°F14.0°C 55.2°F12.9°C 93% 4.6 mph NW7.4 kmh NW 6.9 mph11.1 kmh 29.80 in1009.1 mb - 0.00 in0.0 mm 0.00 in0.0 mm
11:55 AM 57.0°F13.9°C 55.3°F12.9°C 94% 5.8 mph NW9.3 kmh NW 9.2 mph14.8 kmh 29.81 in1009.5 mb - 0.00 in0.0 mm 0.00 in0.0 mm
11:50 AM 56.8°F13.8°C 55.1°F12.8°C 94% 3.5 mph W5.6 kmh W 3.5 mph5.6 kmh 29.81 in1009.5 mb - 0.00 in0.0 mm 0.00 in0.0 mm
11:45 AM 56.7°F13.7°C 55.0°F12.8°C 94% 2.3 mph NNW3.7 kmh NNW 4.6 mph7.4 kmh 29.81 in1009.5 mb - 0.00 in0.0 mm 0.00 in0.0 mm
11:40 AM 56.6°F13.7°C 54.9°F12.7°C 94% 5.8 mph NW9.3 kmh NW 9.2 mph14.8 kmh 29.81 in1009.5 mb - 0.00 in0.0 mm 0.00 in0.0 mm
11:35 AM 56.5°F13.6°C 54.8°F12.7°C 94% 6.9 mph NNW11.1 kmh NNW 15.0 mph24.1 kmh 29.82 in1009.8 mb - 0.00 in0.0 mm 0.00 in0.0 mm
11:30 AM 56.4°F13.6°C 54.7°F12.6°C 94% 5.8 mph NW9.3 kmh NW 9.2 mph14.8 kmh 29.82 in1009.8 mb - 0.00 in0.0 mm 0.00 in0.0 mm
11:25 AM 56.3°F13.5°C 54.6°F12.6°C 94% 4.6 mph NW7.4 kmh NW 11.5 mph18.5 kmh 29.82 in1009.8 mb - 0.00 in0.0 mm 0.00 in0.0 mm
11:20 AM 56.2°F13.4°C 54.5°F12.5°C 94% 5.8 mph NW9.3 kmh NW 10.4 mph16.7 kmh 29.82 in1009.8 mb - 0.00 in0.0 mm 0.00 in0.0 mm
11:15 AM 56.1°F13.4°C 54.4°F12.4°C 94% 5.8 mph NNW9.3 kmh NNW 11.5 mph18.5 kmh 29.82 in1009.8 mb - 0.00 in0.0 mm 0.00 in0.0 mm
11:10 AM 56.0°F13.3°C 54.3°F12.4°C 94% 3.5 mph NNW5.6 kmh NNW 10.4 mph16.7 kmh 29.82 in1009.8 mb - 0.00 in0.0 mm 0.00 in0.0 mm
11:00 AM 55.9°F13.3°C 54.2°F12.3°C 94% 4.6 mph NNW7.4 kmh NNW 10.4 mph16.7 kmh 29.82 in1009.8 mb - 0.00 in0.0 mm 0.00 in0.0 mm
10:55 AM 55.9°F13.3°C 54.2°F12.3°C 94% 3.5 mph NNW5.6 kmh NNW 4.6 mph7.4 kmh 29.82 in1009.8 mb - 0.00 in0.0 mm 0.00 in0.0 mm
10:50 AM 55.8°F13.2°C 53.8°F12.1°C 93% 5.8 mph WNW9.3 kmh WNW 8.1 mph13.0 kmh 29.82 in1009.8 mb - 0.00 in0.0 mm 0.00 in0.0 mm
10:45 AM 55.7°F13.2°C 53.7°F12.1°C 93% 3.5 mph NW5.6 kmh NW 9.2 mph14.8 kmh 29.82 in1009.8 mb - 0.00 in0.0 mm 0.00 in0.0 mm
10:40 AM 55.7°F13.2°C 53.7°F12.1°C 93% 3.5 mph NW5.6 kmh NW 9.2 mph14.8 kmh 29.83 in1010.2 mb - 0.00 in0.0 mm 0.00 in0.0 mm
10:35 AM 55.7°F13.2°C 53.7°F12.1°C 93% 3.5 mph NW5.6 kmh NW 9.2 mph14.8 kmh 29.84 in1010.5 mb - 0.00 in0.0 mm 0.00 in0.0 mm
10:30 AM 55.8°F13.2°C 53.5°F11.9°C 92% 5.8 mph NW9.3 kmh NW 12.7 mph20.4 kmh 29.84 in1010.5 mb - 0.00 in0.0 mm 0.00 in0.0 mm
10:25 AM 55.9°F13.3°C 53.6°F12.0°C 92% 3.5 mph NW5.6 kmh NW 5.8 mph9.3 kmh 29.84 in1010.5 mb - 0.00 in0.0 mm 0.00 in0.0 mm
10:20 AM 56.0°F13.3°C 53.4°F11.9°C 91% 3.5 mph NW5.6 kmh NW 5.8 mph9.3 kmh 29.83 in1010.2 mb - 0.00 in0.0 mm 0.00 in0.0 mm
10:15 AM 56.1°F13.4°C 53.5°F11.9°C 91% 4.6 mph NNW7.4 kmh NNW 8.1 mph13.0 kmh 29.83 in1010.2 mb - 0.00 in0.0 mm 0.00 in0.0 mm
10:10 AM 56.2°F13.4°C 53.3°F11.8°C 90% 4.6 mph N7.4 kmh N 8.1 mph13.0 kmh 29.84 in1010.5 mb - 0.00 in0.0 mm 0.00 in0.0 mm
10:00 AM 56.3°F13.5°C 53.4°F11.9°C 90% 4.6 mph N7.4 kmh N 6.9 mph11.1 kmh 29.83 in1010.2 mb - 0.00 in0.0 mm 0.00 in0.0 mm
09:55 AM 56.3°F13.5°C 53.1°F11.7°C 89% 3.5 mph NW5.6 kmh NW 8.1 mph13.0 kmh 29.83 in1010.2 mb - 0.00 in0.0 mm 0.00 in0.0 mm
09:50 AM 56.4°F13.6°C 53.2°F11.8°C 89% 3.5 mph N5.6 kmh N 3.5 mph5.6 kmh 29.83 in1010.2 mb - 0.00 in0.0 mm 0.00 in0.0 mm
09:45 AM 56.4°F13.6°C 52.9°F11.6°C 88% 3.5 mph WNW5.6 kmh WNW 8.1 mph13.0 kmh 29.83 in1010.2 mb - 0.00 in0.0 mm 0.00 in0.0 mm
09:40 AM 56.3°F13.5°C 52.8°F11.6°C 88% 4.6 mph NNW7.4 kmh NNW 8.1 mph13.0 kmh 29.84 in1010.5 mb - 0.00 in0.0 mm 0.00 in0.0 mm
09:35 AM 56.1°F13.4°C 52.6°F11.4°C 88% 4.6 mph NNW7.4 kmh NNW 6.9 mph11.1 kmh 29.84 in1010.5 mb - 0.00 in0.0 mm 0.00 in0.0 mm
09:30 AM 55.9°F13.3°C 52.7°F11.5°C 89% 3.5 mph NNW5.6 kmh NNW 6.9 mph11.1 kmh 29.84 in1010.5 mb - 0.00 in0.0 mm 0.00 in0.0 mm
09:25 AM 55.5°F13.1°C 52.3°F11.3°C 89% 3.5 mph N5.6 kmh N 6.9 mph11.1 kmh 29.84 in1010.5 mb - 0.00 in0.0 mm 0.00 in0.0 mm
09:20 AM 55.2°F12.9°C 52.0°F11.1°C 89% 3.5 mph NW5.6 kmh NW 4.6 mph7.4 kmh 29.84 in1010.5 mb - 0.00 in0.0 mm 0.00 in0.0 mm
09:15 AM 55.0°F12.8°C 51.8°F11.0°C 89% 3.5 mph WNW5.6 kmh WNW 3.5 mph5.6 kmh 29.84 in1010.5 mb - 0.00 in0.0 mm 0.00 in0.0 mm
09:10 AM 54.8°F12.7°C 51.6°F10.9°C 89% 2.3 mph NW3.7 kmh NW 4.6 mph7.4 kmh 29.85 in1010.8 mb - 0.00 in0.0 mm 0.00 in0.0 mm
09:00 AM 54.5°F12.5°C 51.3°F10.7°C 89% 2.3 mph NNW3.7 kmh NNW 3.5 mph5.6 kmh 29.85 in1010.8 mb - 0.00 in0.0 mm 0.00 in0.0 mm
08:55 AM 54.4°F12.4°C 51.2°F10.7°C 89% 3.5 mph NW5.6 kmh NW 4.6 mph7.4 kmh 29.86 in1011.2 mb - 0.00 in0.0 mm 0.00 in0.0 mm
08:50 AM 54.2°F12.3°C 51.3°F10.7°C 90% 3.5 mph NW5.6 kmh NW 6.9 mph11.1 kmh 29.85 in1010.8 mb - 0.00 in0.0 mm 0.00 in0.0 mm
08:45 AM 54.1°F12.3°C 51.2°F10.7°C 90% 2.3 mph NNW3.7 kmh NNW 3.5 mph5.6 kmh 29.86 in1011.2 mb - 0.00 in0.0 mm 0.00 in0.0 mm
08:40 AM 54.0°F12.2°C 51.1°F10.6°C 90% 3.5 mph NW5.6 kmh NW 3.5 mph5.6 kmh 29.86 in1011.2 mb - 0.00 in0.0 mm 0.00 in0.0 mm
08:35 AM 53.8°F12.1°C 50.9°F10.5°C 90% 4.6 mph WNW7.4 kmh WNW 5.8 mph9.3 kmh 29.86 in1011.2 mb - 0.00 in0.0 mm 0.00 in0.0 mm
08:30 AM 53.6°F12.0°C 51.0°F10.6°C 91% 2.3 mph NW3.7 kmh NW 3.5 mph5.6 kmh 29.87 in1011.5 mb - 0.00 in0.0 mm 0.00 in0.0 mm
08:25 AM 53.3°F11.8°C 50.7°F10.4°C 91% 3.5 mph NW5.6 kmh NW 4.6 mph7.4 kmh 29.87 in1011.5 mb - 0.00 in0.0 mm 0.00 in0.0 mm
08:20 AM 53.0°F11.7°C 50.7°F10.4°C 92% 2.3 mph NW3.7 kmh NW 4.6 mph7.4 kmh 29.86 in1011.2 mb - 0.00 in0.0 mm 0.00 in0.0 mm
08:15 AM 52.7°F11.5°C 50.5°F10.3°C 92% 2.3 mph WNW3.7 kmh WNW 3.5 mph5.6 kmh 29.86 in1011.2 mb - 0.00 in0.0 mm 0.00 in0.0 mm
08:10 AM 52.4°F11.3°C 50.2°F10.1°C 92% 2.3 mph WNW3.7 kmh WNW 3.5 mph5.6 kmh 29.86 in1011.2 mb - 0.00 in0.0 mm 0.00 in0.0 mm
08:00 AM 52.0°F11.1°C 50.1°F10.1°C 93% Calm Calm -- 29.88 in1011.9 mb - 0.00 in0.0 mm 0.00 in0.0 mm
07:55 AM 51.8°F11.0°C 49.8°F9.9°C 93% Calm Calm -- 29.88 in1011.9 mb - 0.00 in0.0 mm 0.00 in0.0 mm
07:50 AM 51.5°F10.8°C 49.5°F9.7°C 93% Calm Calm -- 29.87 in1011.5 mb - 0.00 in0.0 mm 0.00 in0.0 mm
07:45 AM 51.3°F10.7°C 49.3°F9.6°C 93% Calm Calm -- 29.87 in1011.5 mb - 0.00 in0.0 mm 0.00 in0.0 mm
07:40 AM 51.0°F10.6°C 49.0°F9.4°C 93% Calm Calm -- 29.87 in1011.5 mb - 0.00 in0.0 mm 0.00 in0.0 mm
07:35 AM 50.7°F10.4°C 48.8°F9.3°C 93% Calm Calm -- 29.88 in1011.9 mb - 0.00 in0.0 mm 0.00 in0.0 mm
07:30 AM 50.5°F10.3°C 48.6°F9.2°C 93% Calm Calm -- 29.87 in1011.5 mb - 0.00 in0.0 mm 0.00 in0.0 mm
07:25 AM 50.3°F10.2°C 48.1°F8.9°C 92% Calm Calm -- 29.88 in1011.9 mb - 0.00 in0.0 mm 0.00 in0.0 mm
07:20 AM 50.2°F10.1°C 47.9°F8.8°C 92% Calm Calm -- 29.88 in1011.9 mb - 0.00 in0.0 mm 0.00 in0.0 mm
07:15 AM 50.0°F10.0°C 47.8°F8.8°C 92% Calm Calm -- 29.88 in1011.9 mb - 0.00 in0.0 mm 0.00 in0.0 mm
07:10 AM 49.9°F9.9°C 47.4°F8.6°C 91% Calm Calm -- 29.89 in1012.2 mb - 0.00 in0.0 mm 0.00 in0.0 mm
07:00 AM 49.9°F9.9°C 47.4°F8.6°C 91% Calm Calm -- 29.89 in1012.2 mb - 0.00 in0.0 mm 0.00 in0.0 mm
06:55 AM 49.8°F9.9°C 47.3°F8.5°C 91% Calm Calm -- 29.89 in1012.2 mb - 0.00 in0.0 mm 0.00 in0.0 mm
06:50 AM 49.9°F9.9°C 47.4°F8.6°C 91% Calm Calm -- 29.90 in1012.5 mb - 0.00 in0.0 mm 0.00 in0.0 mm
06:45 AM 49.8°F9.9°C 47.0°F8.3°C 90% Calm Calm -- 29.90 in1012.5 mb - 0.00 in0.0 mm 0.00 in0.0 mm
06:40 AM 49.8°F9.9°C 47.0°F8.3°C 90% Calm Calm -- 29.91 in1012.9 mb - 0.00 in0.0 mm 0.00 in0.0 mm
06:35 AM 49.7°F9.8°C 46.6°F8.1°C 89% Calm Calm -- 29.91 in1012.9 mb - 0.00 in0.0 mm 0.00 in0.0 mm
06:30 AM 49.7°F9.8°C 46.6°F8.1°C 89% Calm Calm -- 29.91 in1012.9 mb - 0.00 in0.0 mm 0.00 in0.0 mm
06:25 AM 49.7°F9.8°C 46.6°F8.1°C 89% Calm Calm -- 29.91 in1012.9 mb - 0.00 in0.0 mm 0.00 in0.0 mm
06:20 AM 49.6°F9.8°C 46.2°F7.9°C 88% Calm Calm -- 29.91 in1012.9 mb - 0.00 in0.0 mm 0.00 in0.0 mm
06:15 AM 49.6°F9.8°C 46.2°F7.9°C 88% Calm Calm -- 29.91 in1012.9 mb - 0.00 in0.0 mm 0.00 in0.0 mm
06:10 AM 49.5°F9.7°C 46.1°F7.8°C 88% Calm Calm -- 29.91 in1012.9 mb - 0.00 in0.0 mm 0.00 in0.0 mm
06:00 AM 49.3°F9.6°C 45.9°F7.7°C 88% Calm Calm -- 29.91 in1012.9 mb - 0.00 in0.0 mm 0.00 in0.0 mm
05:55 AM 49.2°F9.6°C 45.8°F7.7°C 88% Calm Calm -- 29.91 in1012.9 mb - 0.00 in0.0 mm 0.00 in0.0 mm
05:50 AM 49.1°F9.5°C 45.7°F7.6°C 88% Calm Calm -- 29.91 in1012.9 mb - 0.00 in0.0 mm 0.00 in0.0 mm
05:45 AM 49.0°F9.4°C 45.6°F7.6°C 88% Calm Calm -- 29.91 in1012.9 mb - 0.00 in0.0 mm 0.00 in0.0 mm
05:40 AM 48.9°F9.4°C 45.5°F7.5°C 88% Calm Calm -- 29.91 in1012.9 mb - 0.00 in0.0 mm 0.00 in0.0 mm
05:35 AM 48.8°F9.3°C 45.4°F7.4°C 88% Calm Calm -- 29.91 in1012.9 mb - 0.00 in0.0 mm 0.00 in0.0 mm
05:30 AM 48.6°F9.2°C 45.5°F7.5°C 89% Calm Calm -- 29.91 in1012.9 mb - 0.00 in0.0 mm 0.00 in0.0 mm
05:25 AM 48.5°F9.2°C 45.4°F7.4°C 89% Calm Calm -- 29.91 in1012.9 mb - 0.00 in0.0 mm 0.00 in0.0 mm
05:20 AM 48.3°F9.1°C 45.2°F7.3°C 89% Calm Calm -- 29.92 in1013.2 mb - 0.00 in0.0 mm 0.00 in0.0 mm
05:10 AM 48.0°F8.9°C 44.9°F7.2°C 89% Calm Calm -- 29.92 in1013.2 mb - 0.00 in0.0 mm 0.00 in0.0 mm
05:00 AM 47.7°F8.7°C 44.9°F7.2°C 90% Calm Calm -- 29.93 in1013.5 mb - 0.00 in0.0 mm 0.00 in0.0 mm
04:55 AM 47.5°F8.6°C 44.7°F7.1°C 90% Calm Calm -- 29.93 in1013.5 mb - 0.00 in0.0 mm 0.00 in0.0 mm
04:50 AM 47.4°F8.6°C 44.9°F7.2°C 91% Calm Calm -- 29.93 in1013.5 mb - 0.00 in0.0 mm 0.00 in0.0 mm
04:45 AM 47.2°F8.4°C 44.7°F7.1°C 91% Calm Calm -- 29.93 in1013.5 mb - 0.00 in0.0 mm 0.00 in0.0 mm
04:40 AM 47.1°F8.4°C 44.6°F7.0°C 91% Calm Calm -- 29.94 in1013.9 mb - 0.00 in0.0 mm 0.00 in0.0 mm
04:35 AM 47.0°F8.3°C 44.5°F6.9°C 91% Calm Calm -- 29.94 in1013.9 mb - 0.00 in0.0 mm 0.00 in0.0 mm
04:30 AM 46.9°F8.3°C 44.4°F6.9°C 91% Calm Calm -- 29.94 in1013.9 mb - 0.00 in0.0 mm 0.00 in0.0 mm
04:25 AM 46.8°F8.2°C 44.3°F6.8°C 91% Calm Calm -- 29.94 in1013.9 mb - 0.00 in0.0 mm 0.00 in0.0 mm
04:20 AM 46.7°F8.2°C 44.2°F6.8°C 91% Calm Calm -- 29.95 in1014.2 mb - 0.00 in0.0 mm 0.00 in0.0 mm
04:15 AM 46.6°F8.1°C 44.4°F6.9°C 92% Calm Calm -- 29.95 in1014.2 mb - 0.00 in0.0 mm 0.00 in0.0 mm
04:10 AM 46.5°F8.1°C 44.3°F6.8°C 92% Calm Calm -- 29.95 in1014.2 mb - 0.00 in0.0 mm 0.00 in0.0 mm
04:00 AM 46.4°F8.0°C 44.2°F6.8°C 92% Calm Calm -- 29.95 in1014.2 mb - 0.00 in0.0 mm 0.00 in0.0 mm
03:55 AM 46.4°F8.0°C 44.2°F6.8°C 92% Calm Calm -- 29.96 in1014.6 mb - 0.00 in0.0 mm 0.00 in0.0 mm
03:50 AM 46.2°F7.9°C 44.1°F6.7°C 92% Calm Calm -- 29.96 in1014.6 mb - 0.00 in0.0 mm 0.00 in0.0 mm
03:45 AM 46.0°F7.8°C 43.6°F6.4°C 91% Calm Calm -- 29.96 in1014.6 mb - 0.00 in0.0 mm 0.00 in0.0 mm
03:40 AM 45.9°F7.7°C 43.7°F6.5°C 92% Calm Calm -- 29.97 in1014.9 mb - 0.00 in0.0 mm 0.00 in0.0 mm
03:35 AM 45.8°F7.7°C 43.6°F6.4°C 92% Calm Calm -- 29.97 in1014.9 mb - 0.00 in0.0 mm 0.00 in0.0 mm
03:30 AM 45.7°F7.6°C 43.5°F6.4°C 92% Calm Calm -- 29.97 in1014.9 mb - 0.00 in0.0 mm 0.00 in0.0 mm
03:25 AM 45.5°F7.5°C 43.3°F6.3°C 92% Calm Calm -- 29.97 in1014.9 mb - 0.00 in0.0 mm 0.00 in0.0 mm
03:20 AM 45.4°F7.4°C 43.2°F6.2°C 92% Calm Calm -- 29.97 in1014.9 mb - 0.00 in0.0 mm 0.00 in0.0 mm
03:15 AM 45.3°F7.4°C 43.1°F6.2°C 92% Calm Calm -- 29.98 in1015.2 mb - 0.00 in0.0 mm 0.00 in0.0 mm
03:10 AM 45.2°F7.3°C 43.0°F6.1°C 92% Calm Calm -- 29.98 in1015.2 mb - 0.00 in0.0 mm 0.00 in0.0 mm
03:00 AM 45.2°F7.3°C 43.0°F6.1°C 92% Calm Calm -- 29.99 in1015.6 mb - 0.00 in0.0 mm 0.00 in0.0 mm
02:55 AM 45.0°F7.2°C 42.8°F6.0°C 92% Calm Calm -- 29.99 in1015.6 mb - 0.00 in0.0 mm 0.00 in0.0 mm
02:50 AM 44.9°F7.2°C 42.4°F5.8°C 91% Calm Calm -- 30.00 in1015.9 mb - 0.00 in0.0 mm 0.00 in0.0 mm
02:45 AM 44.7°F7.1°C 42.3°F5.7°C 91% Calm Calm -- 30.00 in1015.9 mb - 0.00 in0.0 mm 0.00 in0.0 mm
02:40 AM 44.7°F7.1°C 42.2°F5.7°C 91% Calm Calm -- 30.00 in1015.9 mb - 0.00 in0.0 mm 0.00 in0.0 mm
02:35 AM 44.6°F7.0°C 42.1°F5.6°C 91% Calm Calm -- 30.00 in1015.9 mb - 0.00 in0.0 mm 0.00 in0.0 mm
02:30 AM 44.6°F7.0°C 42.1°F5.6°C 91% Calm Calm -- 30.00 in1015.9 mb - 0.00 in0.0 mm 0.00 in0.0 mm
02:25 AM 44.5°F6.9°C 41.7°F5.4°C 90% Calm Calm -- 30.00 in1015.9 mb - 0.00 in0.0 mm 0.00 in0.0 mm
02:20 AM 44.5°F6.9°C 41.7°F5.4°C 90% Calm Calm -- 30.00 in1015.9 mb - 0.00 in0.0 mm 0.00 in0.0 mm
02:15 AM 44.5°F6.9°C 41.5°F5.3°C 89% Calm Calm -- 30.00 in1015.9 mb - 0.00 in0.0 mm 0.00 in0.0 mm
02:10 AM 44.4°F6.9°C 41.4°F5.2°C 89% Calm Calm -- 30.00 in1015.9 mb - 0.00 in0.0 mm 0.00 in0.0 mm
02:00 AM 44.2°F6.8°C 40.9°F4.9°C 88% Calm Calm -- 30.00 in1015.9 mb - 0.00 in0.0 mm 0.00 in0.0 mm
01:55 AM 44.1°F6.7°C 40.8°F4.9°C 88% Calm Calm -- 30.01 in1016.3 mb - 0.00 in0.0 mm 0.00 in0.0 mm
01:50 AM 44.0°F6.7°C 40.7°F4.8°C 88% Calm Calm -- 30.01 in1016.3 mb - 0.00 in0.0 mm 0.00 in0.0 mm
01:45 AM 43.8°F6.6°C 40.8°F4.9°C 89% Calm Calm -- 30.01 in1016.3 mb - 0.00 in0.0 mm 0.00 in0.0 mm
01:40 AM 43.7°F6.5°C 40.7°F4.8°C 89% Calm Calm -- 30.01 in1016.3 mb - 0.00 in0.0 mm 0.00 in0.0 mm
01:35 AM 43.5°F6.4°C 40.5°F4.7°C 89% Calm Calm -- 30.02 in1016.6 mb - 0.00 in0.0 mm 0.00 in0.0 mm
01:30 AM 43.4°F6.3°C 40.3°F4.6°C 89% Calm Calm -- 30.01 in1016.3 mb - 0.00 in0.0 mm 0.00 in0.0 mm
01:25 AM 43.3°F6.3°C 40.0°F4.4°C 88% Calm Calm -- 30.02 in1016.6 mb - 0.00 in0.0 mm 0.00 in0.0 mm
01:20 AM 43.3°F6.3°C 40.3°F4.6°C 89% Calm Calm -- 30.02 in1016.6 mb - 0.00 in0.0 mm 0.00 in0.0 mm
01:15 AM 43.3°F6.3°C 40.3°F4.6°C 89% Calm Calm -- 30.02 in1016.6 mb - 0.00 in0.0 mm 0.00 in0.0 mm
01:10 AM 43.3°F6.3°C 40.0°F4.4°C 88% Calm Calm -- 30.02 in1016.6 mb - 0.00 in0.0 mm 0.00 in0.0 mm
01:00 AM 43.3°F6.3°C 40.2°F4.6°C 89% Calm Calm -- 30.03 in1016.9 mb - 0.00 in0.0 mm 0.00 in0.0 mm
12:55 AM 43.1°F6.2°C 40.1°F4.5°C 89% Calm Calm -- 30.03 in1016.9 mb - 0.00 in0.0 mm 0.00 in0.0 mm
12:50 AM 43.0°F6.1°C 40.0°F4.4°C 89% Calm Calm -- 30.03 in1016.9 mb - 0.00 in0.0 mm 0.00 in0.0 mm
12:45 AM 43.1°F6.2°C 40.1°F4.5°C 89% Calm Calm -- 30.03 in1016.9 mb - 0.00 in0.0 mm 0.00 in0.0 mm
12:40 AM 43.1°F6.2°C 40.1°F4.5°C 89% Calm Calm -- 30.04 in1017.3 mb - 0.00 in0.0 mm 0.00 in0.0 mm
12:35 AM 43.2°F6.2°C 40.2°F4.6°C 89% Calm Calm -- 30.04 in1017.3 mb - 0.00 in0.0 mm 0.00 in0.0 mm
12:30 AM 43.2°F6.2°C 40.2°F4.6°C 89% Calm Calm -- 30.04 in1017.3 mb - 0.00 in0.0 mm 0.00 in0.0 mm
12:25 AM 43.3°F6.3°C 40.3°F4.6°C 89% Calm Calm -- 30.04 in1017.3 mb - 0.00 in0.0 mm 0.00 in0.0 mm
12:20 AM 43.3°F6.3°C 40.3°F4.6°C 89% Calm Calm -- 30.04 in1017.3 mb - 0.00 in0.0 mm 0.00 in0.0 mm
12:15 AM 43.4°F6.3°C 40.4°F4.7°C 89% Calm Calm -- 30.05 in1017.6 mb - 0.00 in0.0 mm 0.00 in0.0 mm
12:10 AM 43.5°F6.4°C 40.5°F4.7°C 89% Calm Calm -- 30.05 in1017.6 mb - 0.00 in0.0 mm 0.00 in0.0 mm
12:00 AM 43.5°F6.4°C 40.7°F4.8°C 90% Calm Calm -- 30.05 in1017.6 mb - 0.00 in0.0 mm 0.00 in0.0 mm